Harwich, MA (02645)

9:50 PM EDT on August 30, 2015 (GMT -0400)
Long Pond | | Change Station
CLOSE
Current Station
Personal Weather Station
Location: Harwich, MA
Elevation: 70 ft
Nearby Weather Stations

Elev 70 ft 41.71 °N, 70.06 °W | Updated 1 second ago

Partly Cloudy
Partly Cloudy
72.9 °F
Feels Like 72 °F
N
2.0
Wind Variable Wind from SW
Gusts 12.0 mph

Today
High -- | Low -- °F
--% Chance of Precip.
Yesterday
High -- | Low -- °F
Precip. -- in
6:03 AM 7:17 PM
Full, 97% visible
Pressure 30.05 in
Visibility 10.0 miles
Clouds Clear
Heat Index 72 °F
Dew Point 68 °F
Humidity 86%
Rainfall 0.00 in
Snow Depth Not available.
UV 0 out of 12
Pollen 10.70 out of 12
Air Quality Not available.
Flu Activity Not available.
METAR KCQX 310052Z AUTO 24007KT 230V290 10SM CLR 23/20 A3004 RMK AO2 SLP174 T02280200 $
Pressure 30.05 in
Visibility 10.0 miles
Clouds Clear
Heat Index 72 °F
Dew Point 68 °F
Humidity 86%
Rainfall 0.00 in
Snow Depth Not available.
UV 0 out of 12
Pollen 10.70 out of 12
Air Quality Not available.
Flu Activity Not available.
METAR KCQX 310052Z AUTO 24007KT 230V290 10SM CLR 23/20 A3004 RMK AO2 SLP174 T02280200 $

10-Day Weather Forecast

×

Almanac

Astronomy

Aug. 30, 2015 Rise Set
Actual Time
Civil Twilight
Nautical Twilight
Astronomical Twilight
Moon
Length of Visible Light
Length of Day
Tomorrow will be .
, % of the Moon is Illuminated

Today's Extremes

State Highs State Lows

Community

WunderPhotos

Upload Photos

1,851,145 photos uploaded!

WunderBlogs® & News

Nearby

Air Quality

  Air Quality AQ Index Pollutant
Not available.

Snow Depth

Station Depth Elevation

Earthquake Activity

City Distance Mag. Time & Date
Minimum magnitude displayed is 2.5.

Coastal Water Temperatures

Place Temperature

Stations

Nearby Weather Stations

Station Location Temp. Windchill Dew Point Humidity Wind Precip. Elev Updated Type